createdAt,value
2019-01-26T00:01:20.101Z,8.27
2019-01-26T00:03:49.551Z,8.47
2019-01-26T00:06:19.329Z,8.70
2019-01-26T00:08:47.372Z,8.23
2019-01-26T00:11:16.080Z,8.40
2019-01-26T00:13:44.149Z,8.43
2019-01-26T00:16:12.219Z,8.17
2019-01-26T00:18:39.981Z,8.37
2019-01-26T00:21:07.697Z,8.80
2019-01-26T00:23:35.508Z,8.93
2019-01-26T00:26:03.323Z,9.87
2019-01-26T00:28:31.144Z,8.00
2019-01-26T00:30:59.536Z,7.40
2019-01-26T00:33:29.272Z,8.60
2019-01-26T00:35:58.004Z,7.70
2019-01-26T00:38:27.810Z,8.13
2019-01-26T00:40:55.652Z,8.33
2019-01-26T00:43:25.284Z,8.70
2019-01-26T00:45:53.905Z,7.40
2019-01-26T00:48:21.655Z,7.97
2019-01-26T00:50:49.755Z,8.20
2019-01-26T00:53:18.536Z,7.63
2019-01-26T00:55:46.551Z,8.10
2019-01-26T00:58:14.216Z,8.20
2019-01-26T01:00:42.996Z,7.67
2019-01-26T01:03:11.066Z,7.50
2019-01-26T01:05:38.680Z,7.80
2019-01-26T01:08:06.877Z,8.27
2019-01-26T01:10:36.274Z,18.17
2019-01-26T01:13:05.237Z,9.73
2019-01-26T01:15:33.152Z,8.90
2019-01-26T01:18:01.516Z,8.70
2019-01-26T01:20:29.346Z,7.93
2019-01-26T01:22:58.085Z,8.90
2019-01-26T01:25:26.764Z,7.73
2019-01-26T01:27:56.437Z,8.13
2019-01-26T01:30:24.967Z,8.37
2019-01-26T01:32:54.036Z,8.77
2019-01-26T01:35:23.581Z,8.00
2019-01-26T01:37:52.293Z,8.37
2019-01-26T01:40:20.907Z,7.77
2019-01-26T01:42:51.577Z,8.30
2019-01-26T01:45:21.164Z,8.30
2019-01-26T01:47:49.545Z,8.83
2019-01-26T01:50:20.664Z,12.80
2019-01-26T01:52:49.241Z,9.63
2019-01-26T01:55:18.008Z,8.03
2019-01-26T01:57:46.971Z,7.53
2019-01-26T02:00:20.360Z,8.60
2019-01-26T02:02:48.813Z,9.03
2019-01-26T02:05:17.375Z,8.80
2019-01-26T02:07:45.812Z,9.57
2019-01-26T02:10:14.715Z,9.00
2019-01-26T02:12:44.042Z,8.67
2019-01-26T02:15:13.243Z,8.87
2019-01-26T02:17:41.901Z,9.33
2019-01-26T02:20:13.331Z,8.93
2019-01-26T02:22:41.456Z,9.80
2019-01-26T02:25:10.834Z,9.10
2019-01-26T02:27:38.911Z,8.60
2019-01-26T02:30:13.124Z,10.07
2019-01-26T02:32:43.962Z,9.90
2019-01-26T02:35:13.580Z,9.00
2019-01-26T02:37:45.674Z,10.10
2019-01-26T02:40:15.744Z,10.10
2019-01-26T02:42:46.906Z,10.90
2019-01-26T02:45:17.388Z,9.60
2019-01-26T02:47:45.586Z,10.43
2019-01-26T02:50:15.904Z,10.13
2019-01-26T02:52:44.437Z,9.40
2019-01-26T02:55:12.973Z,9.13
2019-01-26T02:57:40.868Z,9.30
2019-01-26T03:00:24.264Z,9.60
2019-01-26T03:02:53.571Z,9.77
2019-01-26T03:05:22.185Z,9.10
2019-01-26T03:07:51.975Z,10.50
2019-01-26T03:10:21.031Z,9.23
2019-01-26T03:12:50.508Z,8.30
2019-01-26T03:15:20.660Z,13.70
2019-01-26T03:17:49.678Z,9.30
2019-01-26T03:20:19.477Z,8.43
2019-01-26T03:22:48.576Z,8.70
2019-01-26T03:25:24.721Z,8.50
2019-01-26T03:27:54.011Z,9.00
2019-01-26T03:30:22.721Z,8.93
2019-01-26T03:32:50.797Z,9.10
2019-01-26T03:35:19.648Z,9.10
2019-01-26T03:37:48.053Z,7.40
2019-01-26T03:40:18.416Z,8.40
2019-01-26T03:42:47.642Z,8.13
2019-01-26T03:45:16.640Z,7.50
2019-01-26T03:47:46.322Z,7.90
2019-01-26T03:50:15.726Z,7.77
2019-01-26T03:52:45.182Z,7.97
2019-01-26T03:55:14.451Z,8.10
2019-01-26T03:57:42.500Z,7.50
2019-01-26T04:00:14.172Z,7.90
2019-01-26T04:02:41.964Z,7.43
2019-01-26T04:05:09.801Z,8.60
2019-01-26T04:07:38.949Z,8.37
2019-01-26T04:10:07.348Z,8.20
2019-01-26T04:12:35.284Z,8.23
2019-01-26T04:15:03.595Z,9.67
2019-01-26T04:17:31.168Z,8.50
2019-01-26T04:19:59.017Z,8.20
2019-01-26T04:22:27.205Z,8.40
2019-01-26T04:24:55.582Z,9.10
2019-01-26T04:27:23.344Z,7.50
2019-01-26T04:29:51.309Z,8.70
2019-01-26T04:32:19.113Z,9.20
2019-01-26T04:34:47.435Z,7.77
2019-01-26T04:37:15.218Z,7.73
2019-01-26T04:39:43.000Z,8.83
2019-01-26T04:42:10.546Z,7.97
2019-01-26T04:44:38.109Z,6.70
2019-01-26T04:47:05.892Z,7.80
2019-01-26T04:49:33.681Z,6.70
2019-01-26T04:52:01.251Z,7.20
2019-01-26T04:54:29.485Z,7.47
2019-01-26T04:56:57.696Z,7.50
2019-01-26T04:59:25.329Z,8.00
2019-01-26T05:01:53.500Z,6.30
2019-01-26T05:04:22.073Z,6.27
2019-01-26T05:06:50.406Z,6.07
2019-01-26T05:09:17.945Z,6.40
2019-01-26T05:11:45.524Z,6.07
2019-01-26T05:14:13.586Z,5.53
2019-01-26T05:16:41.666Z,5.90
2019-01-26T05:19:09.524Z,6.40
2019-01-26T05:21:37.065Z,6.00
2019-01-26T05:24:05.922Z,6.20
2019-01-26T05:26:32.689Z,6.47
2019-01-26T05:29:00.470Z,5.50
2019-01-26T05:31:28.520Z,5.73
2019-01-26T05:33:56.203Z,6.00
2019-01-26T05:36:24.512Z,5.63
2019-01-26T05:38:52.659Z,5.30
2019-01-26T05:41:20.612Z,5.67
2019-01-26T05:43:48.507Z,5.17
2019-01-26T05:46:16.599Z,4.80
2019-01-26T05:48:44.960Z,4.90
2019-01-26T05:51:13.612Z,4.70
2019-01-26T05:53:41.188Z,5.00
2019-01-26T05:56:08.823Z,5.10
2019-01-26T05:58:36.444Z,4.90
2019-01-26T06:01:04.528Z,4.87
2019-01-26T06:03:32.503Z,4.67
2019-01-26T06:06:00.553Z,5.27
2019-01-26T06:08:28.635Z,4.83
2019-01-26T06:10:56.417Z,4.90
2019-01-26T06:13:25.422Z,5.00
2019-01-26T06:15:53.480Z,6.20
2019-01-26T06:18:21.828Z,5.77
2019-01-26T06:20:50.177Z,6.30
2019-01-26T06:23:17.836Z,8.40
2019-01-26T06:25:45.815Z,7.30
2019-01-26T06:28:13.599Z,8.20
2019-01-26T06:30:41.280Z,11.30
2019-01-26T06:33:09.027Z,43.17
2019-01-26T06:35:36.704Z,35.90
2019-01-26T06:38:04.568Z,42.03
2019-01-26T06:40:32.525Z,26.97
2019-01-26T06:43:00.095Z,71.90
2019-01-26T06:45:27.680Z,35.40
2019-01-26T06:48:01.879Z,12.73
2019-01-26T06:50:22.870Z,13.57
2019-01-26T06:52:50.438Z,52.77
2019-01-26T06:55:18.248Z,59.97
2019-01-26T06:57:46.611Z,17.73
2019-01-26T07:00:18.585Z,12.40
2019-01-26T07:02:46.129Z,12.53
2019-01-26T07:05:14.163Z,10.40
2019-01-26T07:07:41.800Z,9.87
2019-01-26T07:10:09.964Z,9.43
2019-01-26T07:12:37.647Z,6.93
2019-01-26T07:15:05.795Z,7.10
2019-01-26T07:17:33.614Z,7.70
2019-01-26T07:20:01.179Z,9.07
2019-01-26T07:22:28.715Z,7.93
2019-01-26T07:24:56.295Z,8.07
2019-01-26T07:27:24.193Z,17.00
2019-01-26T07:29:51.819Z,6.77
2019-01-26T07:32:19.420Z,7.30
2019-01-26T07:34:47.398Z,6.00
2019-01-26T07:37:15.947Z,5.70
2019-01-26T07:39:43.518Z,4.87
2019-01-26T07:42:11.181Z,6.00
2019-01-26T07:44:39.584Z,7.73
2019-01-26T07:47:07.420Z,5.13
2019-01-26T07:49:35.063Z,14.87
2019-01-26T07:52:02.942Z,8.37
2019-01-26T07:54:30.848Z,11.00
2019-01-26T07:56:59.221Z,5.57
2019-01-26T07:59:27.999Z,6.03
2019-01-26T08:01:56.668Z,12.63
2019-01-26T08:04:24.406Z,12.40
2019-01-26T08:06:51.963Z,6.50
2019-01-26T08:09:20.303Z,6.07
2019-01-26T08:11:48.040Z,7.30
2019-01-26T08:14:16.204Z,13.10
2019-01-26T08:16:44.256Z,19.83
2019-01-26T08:19:11.937Z,16.40
2019-01-26T08:21:40.107Z,10.73
2019-01-26T08:24:07.771Z,7.97
2019-01-26T08:26:36.035Z,6.30
2019-01-26T08:29:04.031Z,5.70
2019-01-26T08:31:32.604Z,5.83
2019-01-26T08:34:00.467Z,5.03
2019-01-26T08:36:28.321Z,5.70
2019-01-26T08:38:56.194Z,5.77
2019-01-26T08:41:25.391Z,5.80
2019-01-26T08:43:53.163Z,5.20
2019-01-26T08:46:21.052Z,3.93
2019-01-26T08:48:48.984Z,4.37
2019-01-26T08:51:16.933Z,3.80
2019-01-26T08:53:44.697Z,4.20
2019-01-26T08:56:12.458Z,3.70
2019-01-26T08:58:40.089Z,5.00
2019-01-26T09:01:08.597Z,14.50
2019-01-26T09:03:51.012Z,14.90
2019-01-26T09:06:18.572Z,9.13
2019-01-26T09:08:46.159Z,6.97
2019-01-26T09:11:14.000Z,6.70
2019-01-26T09:13:41.635Z,5.80
2019-01-26T09:16:09.214Z,6.37
2019-01-26T09:18:39.014Z,9.13
2019-01-26T09:21:05.085Z,8.93
2019-01-26T09:23:33.411Z,7.97
2019-01-26T09:26:01.312Z,7.00
2019-01-26T09:28:29.345Z,7.30
2019-01-26T09:30:57.412Z,6.30
2019-01-26T09:33:25.800Z,10.70
2019-01-26T09:35:53.372Z,10.37
2019-01-26T09:38:21.275Z,7.20
2019-01-26T09:40:49.609Z,9.47
2019-01-26T09:43:17.183Z,7.50
2019-01-26T09:45:45.516Z,8.37
2019-01-26T09:48:14.348Z,10.40
2019-01-26T09:50:41.894Z,11.40
2019-01-26T09:53:09.451Z,8.60
2019-01-26T09:55:37.596Z,8.50
2019-01-26T09:58:05.864Z,13.27
2019-01-26T10:00:33.525Z,9.53
2019-01-26T10:03:02.240Z,7.50
2019-01-26T10:05:29.919Z,8.57
2019-01-26T10:07:57.920Z,7.40
2019-01-26T10:10:25.684Z,7.77
2019-01-26T10:12:53.939Z,7.63
2019-01-26T10:15:22.265Z,6.87
2019-01-26T10:17:49.842Z,7.57
2019-01-26T10:20:17.884Z,7.37
2019-01-26T10:22:45.806Z,7.10
2019-01-26T10:25:13.951Z,7.22
2019-01-26T10:27:41.873Z,7.07
2019-01-26T10:30:14.122Z,6.87
2019-01-26T10:32:41.692Z,7.57
2019-01-26T10:35:09.317Z,7.53
2019-01-26T10:37:37.658Z,7.00
2019-01-26T10:40:07.345Z,7.60
2019-01-26T10:42:35.443Z,7.13
2019-01-26T10:45:03.482Z,6.40
2019-01-26T10:47:31.627Z,7.50
2019-01-26T10:49:59.660Z,8.17
2019-01-26T10:52:27.392Z,7.00
2019-01-26T10:54:55.761Z,8.77
2019-01-26T10:57:23.544Z,8.70
2019-01-26T10:59:51.774Z,6.83
2019-01-26T11:02:19.704Z,6.87
2019-01-26T11:04:47.267Z,6.30
2019-01-26T11:07:15.936Z,5.47
2019-01-26T11:09:43.892Z,4.97
2019-01-26T11:12:11.630Z,6.53
2019-01-26T11:14:39.198Z,6.80
2019-01-26T11:17:06.847Z,4.90
2019-01-26T11:19:34.666Z,4.90
2019-01-26T11:22:02.360Z,8.00
2019-01-26T11:24:30.409Z,5.20
2019-01-26T11:27:00.252Z,5.77
2019-01-26T11:29:27.194Z,6.33
2019-01-26T11:31:55.096Z,9.40
2019-01-26T11:34:22.636Z,7.70
2019-01-26T11:36:50.581Z,6.50
2019-01-26T11:39:18.600Z,6.13
2019-01-26T11:41:47.276Z,5.23
2019-01-26T11:44:14.832Z,5.40
2019-01-26T11:46:42.616Z,5.40
2019-01-26T11:49:15.057Z,5.23
2019-01-26T11:51:38.724Z,10.30
2019-01-26T11:54:06.515Z,7.00
2019-01-26T11:56:44.296Z,5.10
2019-01-26T11:59:12.320Z,4.83
2019-01-26T12:01:41.665Z,4.60
2019-01-26T12:04:17.367Z,4.63
2019-01-26T12:06:45.025Z,6.13
2019-01-26T12:09:12.807Z,6.53
2019-01-26T12:11:40.902Z,6.30
2019-01-26T12:16:41.412Z,6.43
2019-01-26T12:19:09.424Z,7.53
2019-01-26T12:21:38.058Z,13.90
2019-01-26T12:24:05.991Z,71.17
2019-01-26T12:26:34.132Z,124.57
2019-01-26T12:29:01.757Z,41.00
2019-01-26T12:31:29.332Z,8.40
2019-01-26T12:33:56.885Z,6.90
2019-01-26T12:36:25.835Z,6.30
2019-01-26T12:38:53.718Z,7.17
2019-01-26T12:41:21.296Z,4.33
2019-01-26T12:43:48.937Z,5.80
2019-01-26T12:46:16.476Z,3.60
2019-01-26T12:48:44.111Z,4.17
2019-01-26T12:51:13.204Z,4.67
2019-01-26T12:53:40.741Z,2.07
2019-01-26T12:56:08.391Z,2.00
2019-01-26T12:58:36.396Z,2.03
2019-01-26T13:01:04.729Z,3.43
2019-01-26T13:03:32.342Z,3.33
2019-01-26T13:06:00.439Z,2.20
2019-01-26T13:08:27.995Z,2.87
2019-01-26T13:10:57.922Z,1.60
2019-01-26T13:13:25.589Z,1.90
2019-01-26T13:15:53.201Z,1.10
2019-01-26T13:18:20.749Z,1.60
2019-01-26T13:20:48.512Z,1.20
2019-01-26T13:23:16.264Z,1.70
2019-01-26T13:25:44.264Z,1.43
2019-01-26T13:28:12.332Z,3.10
2019-01-26T13:30:39.924Z,2.30
2019-01-26T13:33:08.121Z,3.33
2019-01-26T13:35:35.953Z,4.63
2019-01-26T13:38:04.103Z,3.83
2019-01-26T13:40:32.452Z,2.60
2019-01-26T13:43:00.451Z,6.07
2019-01-26T13:45:28.619Z,4.30
2019-01-26T13:47:56.884Z,3.93
2019-01-26T13:50:24.685Z,1.70
2019-01-26T13:52:52.728Z,2.50
2019-01-26T13:55:20.303Z,3.07
2019-01-26T13:57:48.504Z,1.53
2019-01-26T14:00:30.566Z,1.50
2019-01-26T14:02:59.913Z,3.07
2019-01-26T14:05:27.812Z,4.10
2019-01-26T14:07:55.906Z,3.30
2019-01-26T14:10:23.649Z,1.50
2019-01-26T14:12:52.026Z,1.67
2019-01-26T14:15:20.131Z,2.20
2019-01-26T14:17:48.118Z,1.97
2019-01-26T14:20:18.384Z,3.50
2019-01-26T14:22:46.953Z,9.00
2019-01-26T14:25:14.519Z,8.93
2019-01-26T14:27:42.060Z,13.63
2019-01-26T14:30:13.031Z,3.20
2019-01-26T14:32:41.148Z,4.60
2019-01-26T14:35:10.180Z,2.60
2019-01-26T14:37:37.716Z,2.00
2019-01-26T14:40:05.996Z,1.33
2019-01-26T14:42:34.145Z,1.50
2019-01-26T14:45:01.951Z,1.40
2019-01-26T14:47:30.219Z,1.57
2019-01-26T14:49:58.666Z,2.00
2019-01-26T14:52:26.320Z,2.10
2019-01-26T14:54:54.650Z,2.60
2019-01-26T14:57:22.366Z,2.20
2019-01-26T14:59:50.364Z,2.83
2019-01-26T15:02:18.336Z,1.20
2019-01-26T15:04:46.375Z,1.40
2019-01-26T15:07:14.443Z,1.30
2019-01-26T15:09:42.679Z,1.20
2019-01-26T15:12:10.221Z,2.10
2019-01-26T15:14:38.312Z,3.20
2019-01-26T15:17:06.623Z,2.97
2019-01-26T15:19:35.190Z,2.97
2019-01-26T15:22:02.923Z,1.83
2019-01-26T15:24:30.920Z,5.70
2019-01-26T15:26:59.270Z,2.30
2019-01-26T15:29:26.829Z,2.47
2019-01-26T15:31:54.483Z,2.90
2019-01-26T15:34:22.290Z,2.50
2019-01-26T15:36:50.135Z,2.70
2019-01-26T15:39:18.111Z,2.03
2019-01-26T15:41:45.657Z,5.70
2019-01-26T15:44:13.242Z,5.30
2019-01-26T15:46:41.432Z,2.10
2019-01-26T15:49:09.469Z,9.57
2019-01-26T15:51:37.399Z,17.77
2019-01-26T15:54:05.433Z,54.60
2019-01-26T15:56:33.534Z,9.50
2019-01-26T15:59:01.568Z,3.73
2019-01-26T16:01:29.652Z,2.53
2019-01-26T16:03:58.170Z,4.90
2019-01-26T16:06:26.522Z,10.53
2019-01-26T16:08:54.100Z,14.00
2019-01-26T16:11:21.663Z,7.53
2019-01-26T16:13:49.896Z,7.10
2019-01-26T16:16:17.502Z,7.40
2019-01-26T16:18:45.108Z,4.50
2019-01-26T16:21:13.276Z,6.93
2019-01-26T16:23:40.857Z,8.20
2019-01-26T16:26:08.538Z,6.90
2019-01-26T16:28:36.681Z,2.90
2019-01-26T16:31:04.246Z,4.33
2019-01-26T16:33:32.485Z,1.90
2019-01-26T16:36:00.259Z,1.83
2019-01-26T16:38:28.089Z,2.23
2019-01-26T16:40:56.308Z,6.73
2019-01-26T16:43:24.416Z,4.33
2019-01-26T16:45:51.980Z,3.20
2019-01-26T16:48:20.580Z,10.90
2019-01-26T16:50:49.166Z,6.60
2019-01-26T16:53:17.063Z,2.27
2019-01-26T16:55:44.631Z,2.67
2019-01-26T16:58:12.360Z,8.40
2019-01-26T17:00:39.957Z,3.23
2019-01-26T17:03:09.164Z,7.33
2019-01-26T17:05:37.394Z,9.73
2019-01-26T17:08:05.371Z,2.17
2019-01-26T17:10:34.239Z,1.73
2019-01-26T17:13:01.894Z,4.30
2019-01-26T17:15:29.988Z,3.20
2019-01-26T17:17:58.099Z,5.47
2019-01-26T17:20:34.620Z,3.87
2019-01-26T17:22:55.626Z,3.20
2019-01-26T17:25:23.185Z,2.20
2019-01-26T17:27:51.107Z,1.70
2019-01-26T17:30:19.143Z,2.37
2019-01-26T17:32:46.705Z,2.10
2019-01-26T17:35:14.465Z,1.97
2019-01-26T17:37:42.385Z,2.03
2019-01-26T17:40:11.570Z,2.23
2019-01-26T17:42:39.107Z,4.80
2019-01-26T17:45:07.405Z,2.10
2019-01-26T17:47:34.974Z,1.80
2019-01-26T17:50:02.503Z,2.57
2019-01-26T17:52:30.068Z,9.80
2019-01-26T17:54:57.599Z,2.10
2019-01-26T17:57:25.934Z,1.60
2019-01-26T17:59:53.499Z,19.17
2019-01-26T18:02:21.041Z,53.07
2019-01-26T18:04:48.576Z,2.00
2019-01-26T18:07:16.140Z,2.93
2019-01-26T18:09:43.680Z,3.47
2019-01-26T18:12:11.245Z,4.80
2019-01-26T18:14:38.784Z,7.37
2019-01-26T18:17:07.085Z,1.50
2019-01-26T18:19:34.644Z,3.20
2019-01-26T18:22:02.212Z,13.70
2019-01-26T18:24:29.779Z,3.00
2019-01-26T18:26:57.312Z,2.17
2019-01-26T18:29:24.847Z,2.97
2019-01-26T18:31:52.542Z,1.90
2019-01-26T18:34:20.080Z,2.80
2019-01-26T18:36:47.644Z,5.93
2019-01-26T18:39:15.204Z,1.93
2019-01-26T18:41:42.740Z,2.20
2019-01-26T18:44:10.306Z,2.20
2019-01-26T18:46:37.875Z,8.40
2019-01-26T18:49:05.411Z,7.30
2019-01-26T18:51:32.979Z,7.83
2019-01-26T18:54:00.548Z,4.60
2019-01-26T18:56:28.088Z,2.60
2019-01-26T18:58:55.652Z,2.43
2019-01-26T19:01:23.183Z,2.83
2019-01-26T19:03:57.712Z,1.80
2019-01-26T19:06:26.020Z,1.97
2019-01-26T19:08:53.580Z,2.93
2019-01-26T19:11:21.112Z,2.53
2019-01-26T19:13:48.676Z,3.10
2019-01-26T19:16:16.212Z,2.57
2019-01-26T19:18:44.511Z,2.23
2019-01-26T19:21:12.080Z,5.23
2019-01-26T19:23:39.638Z,10.50
2019-01-26T19:26:07.200Z,5.30
2019-01-26T19:28:34.776Z,8.30
2019-01-26T19:31:02.656Z,3.80
2019-01-26T19:33:30.231Z,3.80
2019-01-26T19:35:57.823Z,2.23
2019-01-26T19:38:25.396Z,3.97
2019-01-26T19:40:52.933Z,3.63
2019-01-26T19:43:20.526Z,2.63
2019-01-26T19:45:48.100Z,2.53
2019-01-26T19:48:15.632Z,3.67
2019-01-26T19:50:43.207Z,4.17
2019-01-26T19:53:10.752Z,8.80
2019-01-26T19:55:38.288Z,2.77
2019-01-26T19:58:05.901Z,2.10
2019-01-26T20:00:33.440Z,2.67
2019-01-26T20:03:02.024Z,2.87
2019-01-26T20:05:29.560Z,2.53
2019-01-26T20:07:57.136Z,2.47
2019-01-26T20:10:24.685Z,10.43
2019-01-26T20:12:52.254Z,2.30
2019-01-26T20:15:22.672Z,2.60
2019-01-26T20:17:50.208Z,3.10
2019-01-26T20:20:19.550Z,3.60
2019-01-26T20:22:47.100Z,3.20
2019-01-26T20:25:14.644Z,3.13
2019-01-26T20:27:42.203Z,2.80
2019-01-26T20:30:13.290Z,2.90
2019-01-26T20:32:40.865Z,2.80
2019-01-26T20:35:08.410Z,2.50
2019-01-26T20:37:35.972Z,2.17
2019-01-26T20:40:03.534Z,2.97
2019-01-26T20:42:31.072Z,5.10
2019-01-26T20:44:58.636Z,2.20
2019-01-26T20:47:26.199Z,2.00
2019-01-26T20:49:53.732Z,4.57
2019-01-26T20:52:21.271Z,8.57
2019-01-26T20:54:48.848Z,4.20
2019-01-26T20:57:17.183Z,2.20
2019-01-26T20:59:44.751Z,2.20
2019-01-26T21:02:12.288Z,2.00
2019-01-26T21:04:40.836Z,7.03
2019-01-26T21:07:08.371Z,2.50
2019-01-26T21:09:36.919Z,10.07
2019-01-26T21:12:04.451Z,2.27
2019-01-26T21:14:32.983Z,2.00
2019-01-26T21:17:00.515Z,2.07
2019-01-26T21:19:28.073Z,2.77
2019-01-26T21:21:55.652Z,10.27
2019-01-26T21:24:23.184Z,7.37
2019-01-26T21:26:50.748Z,3.47
2019-01-26T21:29:18.286Z,4.07
2019-01-26T21:31:45.861Z,3.37
2019-01-26T21:34:13.392Z,2.20
2019-01-26T21:36:41.091Z,5.23
2019-01-26T21:39:08.652Z,2.50
2019-01-26T21:41:36.206Z,4.73
2019-01-26T21:44:03.764Z,2.50
2019-01-26T21:46:32.323Z,4.20
2019-01-26T21:49:00.906Z,6.30
2019-01-26T21:51:28.452Z,2.73
2019-01-26T21:53:56.020Z,4.27
2019-01-26T21:56:23.565Z,2.40
2019-01-26T21:58:51.122Z,2.30
2019-01-26T22:01:18.688Z,3.90
2019-01-26T22:03:46.249Z,3.73
2019-01-26T22:06:13.783Z,2.90
2019-01-26T22:08:41.752Z,3.10
2019-01-26T22:11:09.320Z,18.70
2019-01-26T22:13:36.856Z,7.93
2019-01-26T22:16:04.425Z,2.43
2019-01-26T22:18:31.968Z,2.17
2019-01-26T22:21:00.509Z,4.30
2019-01-26T22:23:29.038Z,3.03
2019-01-26T22:25:56.584Z,9.43
2019-01-26T22:28:24.207Z,2.80
2019-01-26T22:30:51.752Z,2.10
2019-01-26T22:33:19.324Z,7.43
2019-01-26T22:35:47.134Z,3.75
2019-01-26T22:38:14.728Z,3.50
2019-01-26T22:40:42.263Z,2.20
2019-01-26T22:43:09.827Z,3.57
2019-01-26T22:45:37.364Z,2.00
2019-01-26T22:48:04.926Z,2.10
2019-01-26T22:50:32.459Z,1.93
2019-01-26T22:53:00.004Z,6.30
2019-01-26T22:55:27.569Z,7.03
2019-01-26T22:57:55.100Z,1.50
2019-01-26T23:00:52.181Z,1.73
2019-01-26T23:03:37.676Z,6.53
2019-01-26T23:06:12.717Z,2.50
2019-01-26T23:08:40.291Z,2.13
2019-01-26T23:14:09.929Z,1.12
2019-01-26T23:16:44.306Z,1.90
2019-01-26T23:19:24.103Z,1.17
2019-01-26T23:21:55.224Z,1.30
2019-01-26T23:24:23.916Z,3.10
2019-01-26T23:30:12.480Z,3.30
2019-01-26T23:32:40.020Z,7.67
2019-01-26T23:35:07.558Z,1.93
2019-01-26T23:37:35.121Z,2.53
2019-01-26T23:40:02.671Z,1.30
2019-01-26T23:42:30.240Z,1.57
2019-01-26T23:44:57.781Z,1.20
2019-01-26T23:47:25.349Z,8.17
2019-01-26T23:49:52.894Z,7.17
2019-01-26T23:52:20.560Z,1.90
2019-01-26T23:54:48.120Z,1.43
2019-01-26T23:57:15.659Z,1.30
2019-01-26T23:59:43.220Z,3.00
